createdAt,value
2019-03-31T00:02:17.879Z,30.50
2019-03-31T00:07:06.788Z,36.20
2019-03-31T00:11:58.635Z,39.70
2019-03-31T00:16:52.396Z,36.30
2019-03-31T00:21:44.153Z,37.10
2019-03-31T00:26:36.184Z,37.80
2019-03-31T00:31:31.193Z,40.10
2019-03-31T00:36:22.277Z,35.50
2019-03-31T00:41:15.231Z,41.70
2019-03-31T00:46:06.856Z,37.20
2019-03-31T00:50:58.637Z,37.50
2019-03-31T00:55:50.550Z,40.20
2019-03-31T01:00:42.473Z,45.10
2019-03-31T01:05:35.539Z,41.60
2019-03-31T01:10:29.798Z,47.20
2019-03-31T01:15:21.358Z,38.20
2019-03-31T01:20:13.663Z,38.60
2019-03-31T01:25:03.811Z,53.10
2019-03-31T01:29:56.071Z,44.70
2019-03-31T01:34:48.542Z,51.30
2019-03-31T01:45:33.926Z,59.90
2019-03-31T01:50:26.291Z,47.90
2019-03-31T01:55:25.655Z,46.70
2019-03-31T02:00:15.526Z,50.30
2019-03-31T02:05:07.746Z,46.30
2019-03-31T02:09:57.602Z,50.90
2019-03-31T02:14:47.732Z,46.90
2019-03-31T02:19:38.554Z,56.50
2019-03-31T02:24:28.466Z,47.10
2019-03-31T02:29:19.816Z,53.10
2019-03-31T02:34:09.547Z,54.30
2019-03-31T02:38:59.725Z,50.60
2019-03-31T02:43:49.679Z,47.20
2019-03-31T02:48:39.762Z,44.30
2019-03-31T02:53:29.867Z,54.30
2019-03-31T02:58:19.810Z,50.90
2019-03-31T03:03:10.054Z,47.00
2019-03-31T03:07:59.933Z,46.70
2019-03-31T03:12:49.942Z,57.80
2019-03-31T03:17:41.983Z,51.10
2019-03-31T03:22:31.924Z,57.10
2019-03-31T03:27:22.018Z,47.90
2019-03-31T03:32:12.032Z,60.30
2019-03-31T03:37:00.788Z,73.90
2019-03-31T03:41:50.533Z,61.70
2019-03-31T03:46:40.247Z,55.20
2019-03-31T03:51:29.631Z,54.60
2019-03-31T03:56:19.627Z,55.30
2019-03-31T04:01:11.732Z,59.00
2019-03-31T04:06:02.558Z,56.00
2019-03-31T04:10:54.673Z,58.70
2019-03-31T04:15:46.739Z,63.10
2019-03-31T04:20:39.391Z,53.70
2019-03-31T04:25:31.610Z,60.20
2019-03-31T04:30:23.764Z,61.90
2019-03-31T04:35:15.556Z,67.80
2019-03-31T04:40:07.333Z,58.50
2019-03-31T04:44:58.553Z,57.80
2019-03-31T04:49:48.891Z,53.10
2019-03-31T04:54:39.471Z,58.20
2019-03-31T04:59:29.394Z,58.90
2019-03-31T05:04:19.549Z,64.80
2019-03-31T05:09:10.854Z,62.40
2019-03-31T05:14:02.824Z,54.70
2019-03-31T05:18:52.487Z,52.60
2019-03-31T05:23:41.638Z,49.80
2019-03-31T05:28:33.843Z,51.80
2019-03-31T05:33:23.708Z,48.90
2019-03-31T05:38:15.664Z,33.80
2019-03-31T05:43:09.679Z,54.40
2019-03-31T05:47:59.788Z,45.50
2019-03-31T05:52:49.872Z,41.30
2019-03-31T05:57:39.916Z,42.00
2019-03-31T06:02:30.558Z,34.90
2019-03-31T06:07:24.801Z,44.20
2019-03-31T06:12:14.379Z,38.80
2019-03-31T06:17:03.963Z,37.10
2019-03-31T06:21:53.384Z,28.90
2019-03-31T06:26:43.264Z,35.50
2019-03-31T06:31:33.408Z,35.80
2019-03-31T06:36:23.033Z,33.30
2019-03-31T06:41:11.313Z,38.40
2019-03-31T06:46:01.490Z,39.50
2019-03-31T06:50:51.410Z,35.90
2019-03-31T06:55:43.407Z,36.30
2019-03-31T07:00:35.466Z,36.60
2019-03-31T07:05:27.428Z,27.70
2019-03-31T07:10:19.472Z,28.30
2019-03-31T07:15:10.829Z,30.20
2019-03-31T07:20:03.079Z,33.40
2019-03-31T07:24:55.039Z,32.00
2019-03-31T07:29:46.525Z,26.80
2019-03-31T07:34:38.002Z,29.30
2019-03-31T07:39:28.852Z,33.40
2019-03-31T07:44:21.679Z,33.30
2019-03-31T07:49:13.427Z,27.90
2019-03-31T07:54:04.387Z,32.60
2019-03-31T07:58:55.738Z,29.00
2019-03-31T08:03:45.487Z,39.90
2019-03-31T08:08:36.660Z,32.90
2019-03-31T08:13:26.415Z,36.30
2019-03-31T08:18:16.068Z,34.60
2019-03-31T08:23:05.347Z,28.60
2019-03-31T08:27:55.211Z,35.70
2019-03-31T08:32:45.598Z,40.60
2019-03-31T08:37:36.201Z,28.80
2019-03-31T08:42:27.313Z,27.00
2019-03-31T08:47:16.813Z,30.30
2019-03-31T08:52:07.093Z,26.60
2019-03-31T08:56:57.563Z,27.00
2019-03-31T09:01:48.953Z,19.00
2019-03-31T09:06:41.839Z,26.60
2019-03-31T09:11:32.802Z,21.10
2019-03-31T09:16:23.935Z,21.90
2019-03-31T09:21:15.087Z,18.40
2019-03-31T09:26:06.223Z,24.90
2019-03-31T09:30:56.866Z,19.80
2019-03-31T09:35:47.448Z,21.00
2019-03-31T09:40:38.249Z,21.30
2019-03-31T09:45:29.363Z,22.70
2019-03-31T09:50:20.126Z,20.90
2019-03-31T09:55:10.330Z,17.20
2019-03-31T10:00:02.072Z,21.40
2019-03-31T10:04:53.318Z,22.70
2019-03-31T10:09:44.677Z,16.00
2019-03-31T10:14:36.268Z,17.70
2019-03-31T10:19:27.917Z,23.50
2019-03-31T10:24:18.721Z,15.70
2019-03-31T10:29:09.102Z,17.70
2019-03-31T10:33:59.729Z,15.50
2019-03-31T10:38:51.819Z,18.80
2019-03-31T10:43:42.867Z,19.10
2019-03-31T10:48:33.395Z,21.00
2019-03-31T10:53:24.288Z,15.30
2019-03-31T10:58:15.692Z,13.30
2019-03-31T11:03:07.719Z,15.10
2019-03-31T11:07:59.840Z,14.10
2019-03-31T11:12:51.896Z,15.40
2019-03-31T11:17:43.118Z,18.60
2019-03-31T11:22:34.885Z,17.40
2019-03-31T11:27:26.376Z,16.00
2019-03-31T11:32:17.912Z,14.20
2019-03-31T11:37:13.624Z,13.20
2019-03-31T11:42:04.166Z,12.60
2019-03-31T11:46:57.434Z,17.90
2019-03-31T11:51:47.287Z,17.40
2019-03-31T11:56:38.853Z,16.30
2019-03-31T12:01:30.432Z,13.50
2019-03-31T12:06:21.955Z,13.60
2019-03-31T12:11:12.257Z,14.20
2019-03-31T12:16:03.087Z,13.90
2019-03-31T12:20:53.333Z,14.50
2019-03-31T12:25:44.017Z,14.40
2019-03-31T12:30:34.632Z,13.20
2019-03-31T12:35:24.238Z,10.30
2019-03-31T12:40:15.419Z,11.70
2019-03-31T12:45:05.888Z,12.80
2019-03-31T12:49:57.568Z,10.40
2019-03-31T12:54:50.654Z,11.80
2019-03-31T12:59:43.525Z,10.10
2019-03-31T13:04:33.279Z,11.70
2019-03-31T13:09:24.528Z,10.90
2019-03-31T13:14:16.230Z,12.50
2019-03-31T13:19:07.150Z,8.50
2019-03-31T13:23:57.132Z,8.80
2019-03-31T13:28:47.974Z,15.40
2019-03-31T13:33:39.334Z,8.10
2019-03-31T13:38:30.135Z,7.90
2019-03-31T13:43:21.785Z,7.10
2019-03-31T13:48:13.145Z,8.40
2019-03-31T13:53:04.536Z,11.70
2019-03-31T13:57:57.936Z,11.90
2019-03-31T14:02:56.318Z,10.50
2019-03-31T14:07:48.236Z,11.20
2019-03-31T14:12:40.246Z,8.70
2019-03-31T14:17:30.580Z,8.10
2019-03-31T14:22:20.939Z,9.00
2019-03-31T14:27:11.216Z,7.70
2019-03-31T14:32:02.443Z,10.10
2019-03-31T14:36:53.550Z,12.30
2019-03-31T14:41:44.090Z,8.60
2019-03-31T14:46:33.955Z,12.40
2019-03-31T14:51:24.586Z,10.70
2019-03-31T14:56:16.686Z,8.80
2019-03-31T15:01:07.462Z,11.70
2019-03-31T15:05:57.995Z,8.20
2019-03-31T15:10:47.843Z,7.50
2019-03-31T15:15:38.554Z,7.20
